Time;durP1;ratioP1;P1;durP2;ratioP2;P2;SDS_P1;SDS_P2;PMS_P1;PMS_P2;Temp;Humidity;BMP_temperature;BMP_pressure;BME280_temperature;BME280_humidity;BME280_pressure;Samples;Min_cycle;Max_cycle;Signal;HPM_P1;HPM_P2
2023/05/09 00:01:34;;;;;;;1.50;1.40;;;12.40;80.80;;;;;;5075093;28;20182;-55
2023/05/09 00:04:01;;;;;;;4.23;1.80;;;12.40;77.10;;;;;;5084947;28;20189;-55
2023/05/09 00:06:28;;;;;;;3.83;1.53;;;12.40;77.20;;;;;;5064352;28;20198;-55
2023/05/09 00:08:55;;;;;;;2.37;1.70;;;12.40;77.30;;;;;;5084222;28;20216;-54
2023/05/09 00:11:22;;;;;;;3.57;1.70;;;12.30;77.50;;;;;;5083882;28;20862;-52
2023/05/09 00:13:50;;;;;;;4.93;1.87;;;12.30;77.70;;;;;;5069271;28;20262;-52
2023/05/09 00:16:22;;;;;;;2.27;1.83;;;12.30;78.10;;;;;;5061334;28;20795;-54
2023/05/09 00:18:50;;;;;;;3.00;1.57;;;12.20;78.30;;;;;;5085864;28;20667;-54
2023/05/09 00:21:17;;;;;;;1.70;1.60;;;12.10;78.70;;;;;;5076549;28;20208;-55
2023/05/09 00:23:43;;;;;;;2.53;1.73;;;12.10;79.00;;;;;;5068046;28;20206;-54
2023/05/09 00:26:10;;;;;;;3.57;2.07;;;12.10;79.00;;;;;;5082189;28;20259;-53
2023/05/09 00:28:38;;;;;;;2.30;1.87;;;12.10;79.40;;;;;;5077939;28;20210;-56
2023/05/09 00:31:05;;;;;;;2.33;1.57;;;12.00;79.60;;;;;;5062425;28;20206;-49
2023/05/09 00:33:34;;;;;;;2.40;1.73;;;12.00;79.70;;;;;;5083338;28;21099;-55
2023/05/09 00:36:00;;;;;;;2.10;1.60;;;12.00;80.00;;;;;;5083659;28;20268;-54
2023/05/09 00:38:28;;;;;;;1.87;1.77;;;11.90;80.00;;;;;;5061759;28;20232;-53
2023/05/09 00:40:55;;;;;;;2.00;1.67;;;11.90;80.40;;;;;;5080457;28;21013;-55
2023/05/09 00:43:22;;;;;;;2.63;1.70;;;11.90;80.70;;;;;;5066735;28;20267;-53
2023/05/09 00:45:49;;;;;;;3.47;1.80;;;11.80;81.20;;;;;;5068882;28;20203;-56
2023/05/09 00:48:17;;;;;;;4.33;1.63;;;11.80;81.50;;;;;;5073071;28;20222;-55
2023/05/09 00:50:46;;;;;;;1.93;1.77;;;11.70;81.80;;;;;;5083334;28;20198;-54
2023/05/09 00:53:14;;;;;;;5.13;1.80;;;11.70;82.10;;;;;;5059042;28;20229;-53
2023/05/09 00:55:41;;;;;;;1.77;1.67;;;11.70;82.70;;;;;;5074758;28;20289;-53
2023/05/09 00:58:08;;;;;;;2.33;1.70;;;11.60;83.10;;;;;;5077608;28;20651;-53
2023/05/09 01:00:35;;;;;;;2.97;1.93;;;11.60;83.50;;;;;;5084277;28;20652;-51
2023/05/09 01:03:03;;;;;;;3.80;1.70;;;11.50;84.00;;;;;;5066312;28;20652;-50
2023/05/09 01:05:38;;;;;;;3.17;1.97;;;11.50;84.60;;;;;;5081368;28;20289;-54
2023/05/09 01:08:17;;;;;;;2.07;1.87;;;11.40;85.30;;;;;;5063508;28;20225;-49
2023/05/09 01:11:03;;;;;;;4.27;1.70;;;11.40;85.90;;;;;;5062850;28;20190;-53
2023/05/09 01:13:38;;;;;;;2.30;1.70;;;11.30;86.60;;;;;;5076726;28;20237;-51
2023/05/09 01:16:32;;;;;;;3.43;1.70;;;11.30;89.30;;;;;;5084056;28;20201;-55
2023/05/09 01:19:07;;;;;;;2.80;2.17;;;11.20;87.60;;;;;;5066675;28;20306;-55
2023/05/09 01:21:35;;;;;;;2.23;2.03;;;11.20;88.30;;;;;;5078299;28;20206;-54
2023/05/09 01:24:31;;;;;;;3.30;2.00;;;11.10;88.90;;;;;;5050948;28;22046;-53
2023/05/09 01:27:19;;;;;;;3.50;2.10;;;11.10;91.80;;;;;;5081430;28;20560;-56
2023/05/09 01:29:51;;;;;;;2.40;2.20;;;11.10;90.00;;;;;;5079045;28;20213;-53
2023/05/09 01:32:23;;;;;;;1.90;1.67;;;11.00;90.40;;;;;;5076077;28;20217;-52
2023/05/09 01:34:54;;;;;;;5.30;1.83;;;11.00;90.60;;;;;;5071576;28;20214;-56
2023/05/09 01:37:30;;;;;;;2.73;2.53;;;11.00;90.90;;;;;;5074723;28;20201;-52
2023/05/09 01:40:00;;;;;;;3.47;2.10;;;10.90;91.10;;;;;;5055918;28;20877;-53
2023/05/09 01:42:33;;;;;;;2.53;1.90;;;10.90;91.30;;;;;;5080842;28;20194;-53
2023/05/09 01:45:04;;;;;;;2.47;1.90;;;10.90;91.60;;;;;;5082172;28;20197;-55
2023/05/09 01:47:31;;;;;;;1.90;1.73;;;10.90;91.90;;;;;;5074799;28;20206;-52
2023/05/09 01:50:00;;;;;;;3.10;2.10;;;10.90;92.20;;;;;;5069674;28;20214;-53
2023/05/09 01:52:30;;;;;;;9.87;2.87;;;10.80;94.70;;;;;;5073772;28;20198;-52
2023/05/09 01:54:57;;;;;;;4.20;2.20;;;10.70;99.90;;;;;;5077453;28;20583;-55
2023/05/09 01:57:25;;;;;;;3.33;2.40;;;10.70;99.90;;;;;;5064193;28;20212;-51
2023/05/09 01:59:53;;;;;;;3.70;2.00;;;10.70;97.00;;;;;;5082301;28;20206;-54
2023/05/09 02:02:22;;;;;;;2.40;2.20;;;10.70;97.00;;;;;;5081390;28;20194;-49
2023/05/09 02:04:50;;;;;;;3.83;2.27;;;10.70;97.80;;;;;;5062251;28;20198;-57
2023/05/09 02:07:18;;;;;;;2.17;1.97;;;10.60;98.20;;;;;;5076569;28;20230;-54
2023/05/09 02:09:46;;;;;;;2.93;2.10;;;10.60;99.40;;;;;;5080964;28;20218;-54
2023/05/09 02:12:13;;;;;;;2.70;2.50;;;10.60;94.70;;;;;;5065296;28;20698;-57
2023/05/09 02:14:40;;;;;;;4.67;2.53;;;10.60;95.50;;;;;;5080099;28;20214;-56
2023/05/09 02:17:09;;;;;;;2.63;1.93;;;10.50;95.50;;;;;;5080724;28;20198;-55
2023/05/09 02:19:37;;;;;;;4.30;2.40;;;10.50;95.70;;;;;;5059737;28;20244;-55
2023/05/09 02:22:05;;;;;;;2.97;2.37;;;10.50;96.00;;;;;;5081319;28;20571;-53
2023/05/09 02:24:33;;;;;;;2.30;2.10;;;10.50;96.40;;;;;;5080333;28;20536;-52
2023/05/09 02:27:00;;;;;;;3.60;2.33;;;10.40;96.50;;;;;;5065885;28;20225;-52
2023/05/09 02:29:37;;;;;;;4.63;2.43;;;10.50;96.80;;;;;;5080553;28;20218;-49
2023/05/09 02:32:06;;;;;;;3.43;2.23;;;10.40;97.10;;;;;;5078623;28;20269;-54
2023/05/09 02:34:34;;;;;;;4.77;2.63;;;10.40;97.30;;;;;;5071783;28;20654;-56
2023/05/09 02:37:04;;;;;;;2.63;2.40;;;10.40;97.50;;;;;;5071764;28;20229;-57
2023/05/09 02:39:31;;;;;;;3.43;2.33;;;10.40;97.90;;;;;;5079755;28;20218;-54
2023/05/09 02:42:06;;;;;;;4.03;2.50;;;10.30;98.10;;;;;;5082394;28;20208;-54
2023/05/09 02:44:34;;;;;;;2.83;2.63;;;10.30;98.30;;;;;;5060176;28;20197;-55
2023/05/09 02:47:01;;;;;;;3.00;2.70;;;10.30;98.50;;;;;;5075544;28;20711;-57
2023/05/09 02:49:28;;;;;;;3.60;2.40;;;10.30;98.70;;;;;;5073834;28;20210;-50
2023/05/09 02:51:56;;;;;;;2.60;2.40;;;10.30;99.00;;;;;;5069984;28;20210;-55
2023/05/09 02:54:24;;;;;;;2.93;2.57;;;10.20;99.30;;;;;;5080322;28;20245;-53
2023/05/09 02:56:51;;;;;;;5.57;2.70;;;10.20;99.60;;;;;;5080594;28;20936;-57
2023/05/09 02:59:19;;;;;;;2.97;2.77;;;10.20;99.90;;;;;;5061089;28;20225;-53
2023/05/09 03:01:46;;;;;;;4.77;2.90;;;10.20;99.90;;;;;;5073143;28;20740;-56
2023/05/09 03:04:15;;;;;;;2.90;2.63;;;10.10;99.90;;;;;;5081091;28;20210;-54
2023/05/09 03:06:41;;;;;;;4.00;2.57;;;10.10;99.90;;;;;;5068815;28;20210;-56
2023/05/09 03:09:09;;;;;;;3.83;2.43;;;10.00;99.90;;;;;;5082135;28;20210;-54
2023/05/09 03:11:37;;;;;;;3.80;2.90;;;10.00;99.90;;;;;;5081801;28;20221;-57
2023/05/09 03:14:05;;;;;;;3.90;2.90;;;10.00;99.90;;;;;;5080876;28;20259;-53
2023/05/09 03:16:32;;;;;;;2.93;2.70;;;10.00;99.90;;;;;;5052169;28;20672;-58
2023/05/09 03:19:00;;;;;;;3.10;2.80;;;9.90;99.90;;;;;;5080063;28;20995;-57
2023/05/09 03:21:27;;;;;;;4.27;3.27;;;9.90;99.90;;;;;;5087039;28;20558;-58
2023/05/09 03:23:55;;;;;;;3.20;2.47;;;9.90;99.90;;;;;;5069678;28;20304;-57
2023/05/09 03:26:22;;;;;;;4.23;3.07;;;9.90;99.90;;;;;;5085306;28;20221;-55
2023/05/09 03:28:50;;;;;;;3.60;2.50;;;9.80;99.90;;;;;;5074146;28;20874;-56
2023/05/09 03:31:18;;;;;;;3.23;3.00;;;9.80;99.90;;;;;;5061246;28;20782;-57
2023/05/09 03:33:45;;;;;;;2.87;2.67;;;9.80;99.90;;;;;;5085165;28;20712;-55
2023/05/09 03:36:12;;;;;;;3.50;2.80;;;9.70;99.90;;;;;;5085353;28;20221;-57
2023/05/09 03:38:41;;;;;;;5.10;2.87;;;9.70;99.90;;;;;;5072558;28;20245;-54
2023/05/09 03:41:08;;;;;;;3.63;2.77;;;9.70;99.90;;;;;;5078918;28;20190;-54
2023/05/09 03:43:35;;;;;;;3.33;3.03;;;9.70;99.90;;;;;;5076743;28;20276;-55
2023/05/09 03:46:04;;;;;;;3.40;3.10;;;9.60;99.90;;;;;;5064594;28;20289;-55
2023/05/09 03:48:31;;;;;;;4.17;2.73;;;9.60;99.90;;;;;;5085357;28;20221;-54
2023/05/09 03:50:59;;;;;;;3.03;2.83;;;9.60;99.90;;;;;;5081160;28;20802;-55
2023/05/09 03:53:28;;;;;;;3.87;3.03;;;9.60;99.90;;;;;;5074977;28;20206;-56
2023/05/09 03:55:55;;;;;;;3.40;3.10;;;9.60;99.90;;;;;;5075242;28;20222;-53
2023/05/09 03:58:22;;;;;;;3.37;3.17;;;9.60;99.90;;;;;;5079924;28;20216;-54
2023/05/09 04:00:50;;;;;;;3.60;2.83;;;9.60;99.90;;;;;;5067028;28;20194;-51
2023/05/09 04:03:23;;;;;;;4.73;2.93;;;9.50;99.90;;;;;;5080635;28;20194;-57
2023/05/09 04:05:51;;;;;;;3.50;3.20;;;9.50;99.90;;;;;;5080652;28;20186;-56
2023/05/09 04:08:32;;;;;;;4.47;3.60;;;9.50;99.90;;;;;;5075479;28;20226;-56
2023/05/09 04:11:01;;;;;;;6.20;3.70;;;9.50;99.90;;;;;;5062760;28;20280;-56
2023/05/09 04:13:29;;;;;;;3.50;3.10;;;9.50;99.90;;;;;;5084442;28;20194;-55
2023/05/09 04:15:56;;;;;;;3.37;3.07;;;9.50;99.90;;;;;;5068683;28;20556;-53
2023/05/09 04:18:27;;;;;;;4.93;3.27;;;9.50;99.90;;;;;;5062313;28;20646;-56
2023/05/09 04:20:54;;;;;;;3.53;3.10;;;9.50;99.90;;;;;;5067313;28;20221;-48
2023/05/09 04:23:21;;;;;;;3.60;3.17;;;9.50;99.90;;;;;;5071645;28;20284;-55
2023/05/09 04:25:50;;;;;;;4.73;3.30;;;9.40;99.90;;;;;;5059912;28;20560;-55
2023/05/09 04:28:18;;;;;;;3.80;3.50;;;9.50;99.90;;;;;;5075975;28;20610;-51
2023/05/09 04:30:44;;;;;;;3.83;3.43;;;9.50;99.90;;;;;;5067950;28;20198;-49
2023/05/09 04:33:11;;;;;;;3.70;3.40;;;9.50;99.90;;;;;;5057046;28;20220;-55
2023/05/09 04:35:40;;;;;;;3.07;2.87;;;9.50;99.90;;;;;;5077858;28;20210;-55
2023/05/09 04:38:07;;;;;;;3.90;3.17;;;9.50;99.90;;;;;;5071876;28;20236;-56
2023/05/09 04:40:35;;;;;;;3.70;3.40;;;9.50;99.90;;;;;;5064014;28;20213;-47
2023/05/09 04:43:02;;;;;;;7.40;3.10;;;9.50;99.90;;;;;;5078318;28;20208;-51
2023/05/09 04:45:30;;;;;;;4.90;3.80;;;9.50;99.90;;;;;;5078590;28;20182;-56
2023/05/09 04:47:59;;;;;;;3.87;3.50;;;9.50;99.90;;;;;;5053504;28;20923;-49
2023/05/09 04:50:26;;;;;;;4.53;3.07;;;9.60;99.90;;;;;;5072469;28;20222;-52
2023/05/09 04:52:55;;;;;;;3.73;3.43;;;9.60;99.90;;;;;;5064231;28;20292;-51
2023/05/09 04:55:22;;;;;;;4.20;3.77;;;9.50;99.90;;;;;;5073623;28;20218;-54
2023/05/09 04:57:50;;;;;;;3.97;3.33;;;9.60;99.90;;;;;;5062759;28;20205;-51
2023/05/09 05:00:18;;;;;;;4.93;3.33;;;9.60;99.90;;;;;;5080537;28;20597;-53
2023/05/09 05:02:47;;;;;;;3.47;2.97;;;9.70;99.90;;;;;;5060544;28;20197;-57
2023/05/09 05:05:14;;;;;;;4.40;3.33;;;9.70;99.90;;;;;;5070131;28;20260;-56
2023/05/09 05:07:43;;;;;;;4.90;3.43;;;9.70;99.90;;;;;;5067293;28;20202;-56
2023/05/09 05:10:13;;;;;;;3.47;3.17;;;9.80;99.90;;;;;;5070670;28;20202;-50
2023/05/09 05:12:45;;;;;;;3.70;3.40;;;9.80;99.90;;;;;;5061322;28;20206;-57
2023/05/09 05:15:13;;;;;;;3.83;3.43;;;9.80;99.90;;;;;;5085146;28;20229;-55
2023/05/09 05:17:41;;;;;;;3.83;3.33;;;9.90;99.90;;;;;;5072147;28;20221;-57
2023/05/09 05:20:10;;;;;;;4.43;3.30;;;9.90;99.90;;;;;;5049496;28;20274;-57
2023/05/09 05:22:40;;;;;;;8.20;3.50;;;10.00;99.90;;;;;;5075713;28;20825;-58
2023/05/09 05:25:08;;;;;;;4.03;3.57;;;10.00;99.90;;;;;;5077332;28;21598;-50
2023/05/09 05:27:38;;;;;;;4.40;2.93;;;10.10;99.90;;;;;;5068761;28;20599;-58
2023/05/09 05:30:08;;;;;;;4.00;3.60;;;10.10;99.90;;;;;;5079779;28;20216;-51
2023/05/09 05:32:35;;;;;;;3.70;3.40;;;10.20;99.90;;;;;;5063206;28;20284;-56
2023/05/09 05:35:05;;;;;;;3.93;3.50;;;10.30;99.90;;;;;;5057473;28;20220;-54
2023/05/09 05:37:35;;;;;;;4.10;3.30;;;10.30;99.90;;;;;;5077069;28;20346;-58
2023/05/09 05:40:03;;;;;;;7.03;3.90;;;10.40;99.90;;;;;;5069836;28;20304;-53
2023/05/09 05:42:33;;;;;;;3.60;3.40;;;10.40;99.90;;;;;;5061891;28;20202;-56
2023/05/09 05:45:04;;;;;;;5.37;3.43;;;10.50;99.90;;;;;;5067495;28;21259;-56
2023/05/09 05:47:33;;;;;;;4.00;3.70;;;10.50;99.90;;;;;;5074061;28;20730;-57
2023/05/09 05:50:00;;;;;;;7.60;4.40;;;10.60;99.90;;;;;;5056586;28;24152;-49
2023/05/09 05:52:27;;;;;;;4.47;3.43;;;10.70;99.90;;;;;;5074383;28;20190;-49
2023/05/09 05:54:54;;;;;;;3.70;3.40;;;10.70;99.90;;;;;;5071147;28;20852;-48
2023/05/09 05:57:22;;;;;;;6.13;3.63;;;10.80;99.90;;;;;;5074922;28;20255;-55
2023/05/09 05:59:49;;;;;;;5.10;4.00;;;10.90;99.90;;;;;;5056961;28;20225;-57
2023/05/09 06:02:18;;;;;;;5.07;3.80;;;10.90;99.90;;;;;;5068762;28;20209;-49
2023/05/09 06:04:47;;;;;;;3.63;3.33;;;11.00;99.90;;;;;;5057395;28;20292;-58
2023/05/09 06:07:14;;;;;;;4.87;3.60;;;11.00;99.90;;;;;;5080710;28;20209;-49
2023/05/09 06:09:41;;;;;;;3.97;3.50;;;11.00;99.90;;;;;;5073090;28;20332;-58
2023/05/09 06:12:10;;;;;;;3.47;3.17;;;11.10;99.90;;;;;;5064114;28;20213;-57
2023/05/09 06:14:37;;;;;;;3.80;3.50;;;11.20;99.90;;;;;;5059026;28;20198;-54
2023/05/09 06:17:04;;;;;;;4.03;3.33;;;11.20;99.90;;;;;;5074186;28;20209;-53
2023/05/09 06:19:32;;;;;;;5.33;3.60;;;11.30;99.90;;;;;;5078572;28;20214;-52
2023/05/09 06:22:00;;;;;;;4.33;3.80;;;11.40;99.90;;;;;;5061672;28;20551;-56
2023/05/09 06:24:28;;;;;;;3.93;3.63;;;11.50;99.90;;;;;;5077091;28;20259;-49
2023/05/09 06:26:56;;;;;;;7.23;3.53;;;11.50;99.90;;;;;;5071562;28;20810;-57
2023/05/09 06:29:23;;;;;;;7.53;3.77;;;11.60;99.90;;;;;;5059667;28;20229;-55
2023/05/09 06:31:51;;;;;;;4.77;3.47;;;11.70;99.90;;;;;;5081362;28;20247;-56
2023/05/09 06:34:18;;;;;;;4.10;3.67;;;11.80;99.90;;;;;;5081766;28;20189;-47
2023/05/09 06:36:47;;;;;;;3.50;3.20;;;11.90;99.90;;;;;;5064798;28;20218;-56
2023/05/09 06:39:14;;;;;;;3.80;3.50;;;12.00;99.90;;;;;;5075380;28;20233;-52
2023/05/09 06:41:40;;;;;;;3.67;3.30;;;12.10;99.90;;;;;;5077501;28;20190;-54
2023/05/09 06:44:08;;;;;;;4.40;3.90;;;12.10;99.90;;;;;;5068050;28;20200;-49
2023/05/09 06:46:36;;;;;;;7.40;3.60;;;12.20;99.90;;;;;;5068453;28;20537;-52
2023/05/09 06:49:02;;;;;;;5.30;3.17;;;12.30;99.90;;;;;;5079275;28;20214;-57
2023/05/09 06:51:30;;;;;;;4.23;3.60;;;12.30;99.90;;;;;;5053114;28;20643;-57
2023/05/09 06:53:58;;;;;;;5.53;3.57;;;12.40;99.90;;;;;;5076992;28;20205;-56
2023/05/09 06:56:28;;;;;;;3.63;3.33;;;12.50;99.90;;;;;;5062710;28;20294;-57
2023/05/09 06:58:54;;;;;;;4.63;3.77;;;12.60;99.90;;;;;;5066453;28;20226;-53
2023/05/09 07:01:21;;;;;;;4.10;3.80;;;12.70;99.90;;;;;;5066302;28;20198;-56
2023/05/09 07:03:47;;;;;;;4.20;3.73;;;12.90;99.90;;;;;;5075696;28;20262;-48
2023/05/09 07:06:14;;;;;;;3.70;3.40;;;12.90;99.90;;;;;;5077717;28;20201;-57
2023/05/09 07:08:41;;;;;;;6.00;3.97;;;13.00;99.90;;;;;;5062076;28;20945;-53
2023/05/09 07:11:09;;;;;;;3.70;3.40;;;13.20;99.90;;;;;;5066775;28;20259;-51
2023/05/09 07:13:36;;;;;;;5.27;3.73;;;13.30;99.90;;;;;;5066181;28;20193;-52
2023/05/09 07:16:03;;;;;;;4.80;3.47;;;13.30;99.90;;;;;;5081693;28;20210;-51
2023/05/09 07:18:30;;;;;;;3.33;3.03;;;13.40;99.90;;;;;;5060535;28;20222;-57
2023/05/09 07:20:57;;;;;;;6.27;3.63;;;13.50;99.90;;;;;;5081984;28;20590;-52
2023/05/09 07:23:24;;;;;;;6.37;3.43;;;13.60;99.90;;;;;;5054855;28;20411;-55
2023/05/09 07:25:56;;;;;;;3.97;3.30;;;13.70;99.90;;;;;;5071378;28;20210;-54
2023/05/09 07:28:25;;;;;;;3.27;2.93;;;13.80;99.90;;;;;;5073601;28;20792;-58
2023/05/09 07:30:51;;;;;;;5.80;3.60;;;14.00;99.90;;;;;;5074950;28;20206;-49
2023/05/09 07:33:18;;;;;;;3.73;3.23;;;14.00;99.90;;;;;;5069517;28;20205;-58
2023/05/09 07:35:45;;;;;;;3.40;3.20;;;14.10;99.90;;;;;;5070056;28;20218;-55
2023/05/09 07:38:11;;;;;;;6.10;3.33;;;14.10;99.90;;;;;;5052666;28;20221;-58
2023/05/09 07:40:38;;;;;;;4.67;3.30;;;14.20;99.90;;;;;;5077492;28;20322;-50
2023/05/09 07:43:05;;;;;;;4.00;3.20;;;14.20;99.90;;;;;;5075574;28;20710;-50
2023/05/09 07:45:33;;;;;;;5.83;3.80;;;14.30;99.90;;;;;;5065756;28;20190;-54
2023/05/09 07:48:00;;;;;;;3.33;3.07;;;14.50;99.90;;;;;;5071355;28;20208;-54
2023/05/09 07:50:26;;;;;;;4.20;2.93;;;14.70;99.90;;;;;;5066423;28;20274;-58
2023/05/09 07:52:54;;;;;;;3.80;3.33;;;14.60;99.90;;;;;;5075314;28;20198;-49
2023/05/09 07:55:21;;;;;;;3.67;3.37;;;14.90;99.60;;;;;;5061731;28;20305;-57
2023/05/09 07:57:47;;;;;;;3.30;3.00;;;15.00;99.20;;;;;;5081661;28;20632;-52
2023/05/09 08:00:15;;;;;;;4.20;2.90;;;15.10;99.00;;;;;;5082889;28;20659;-57
2023/05/09 08:02:43;;;;;;;4.60;2.77;;;15.20;98.80;;;;;;5066716;28;20203;-54
2023/05/09 08:05:12;;;;;;;3.30;3.00;;;15.20;98.80;;;;;;5073989;28;20202;-52
2023/05/09 08:07:38;;;;;;;3.23;2.87;;;15.30;98.60;;;;;;5068569;28;20277;-54
2023/05/09 08:10:06;;;;;;;3.53;3.00;;;15.50;98.50;;;;;;5067347;28;20626;-54
2023/05/09 08:12:33;;;;;;;3.03;2.73;;;15.60;98.30;;;;;;5082431;28;20200;-55
2023/05/09 08:14:59;;;;;;;4.37;3.20;;;15.80;97.90;;;;;;5075851;28;20569;-53
2023/05/09 08:17:27;;;;;;;2.77;2.57;;;15.90;97.40;;;;;;5065848;28;20209;-54
2023/05/09 08:19:55;;;;;;;2.80;2.60;;;15.90;97.00;;;;;;5069886;28;20602;-56
2023/05/09 08:22:22;;;;;;;4.07;3.00;;;16.10;96.50;;;;;;5075710;28;20201;-54
2023/05/09 08:24:49;;;;;;;4.00;2.93;;;16.20;96.20;;;;;;5064872;28;22211;-57
2023/05/09 08:27:15;;;;;;;3.70;3.27;;;16.40;96.10;;;;;;5078663;28;20190;-58
2023/05/09 08:29:43;;;;;;;3.27;3.00;;;16.50;96.00;;;;;;5076843;28;20205;-54
2023/05/09 08:32:10;;;;;;;3.03;2.60;;;16.60;95.70;;;;;;5062944;28;20260;-50
2023/05/09 08:34:36;;;;;;;8.33;3.00;;;16.60;95.30;;;;;;5063731;28;20282;-53
2023/05/09 08:37:07;;;;;;;3.17;2.90;;;17.00;99.90;;;;;;5079139;28;20242;-50
2023/05/09 08:39:34;;;;;;;3.47;2.57;;;17.00;99.90;;;;;;5081000;28;21001;-50
2023/05/09 08:42:02;;;;;;;4.37;2.60;;;16.90;99.90;;;;;;5067203;28;20314;-50
2023/05/09 08:44:30;;;;;;;2.80;2.60;;;17.00;99.90;;;;;;5070177;28;20298;-57
2023/05/09 08:47:00;;;;;;;2.60;2.40;;;17.10;99.80;;;;;;5066198;28;20228;-52
2023/05/09 08:49:28;;;;;;;2.67;2.47;;;17.20;99.90;;;;;;5061269;28;20228;-54
2023/05/09 08:51:55;;;;;;;3.00;2.70;;;17.30;99.90;;;;;;5079258;28;20664;-52
2023/05/09 08:54:24;;;;;;;3.77;2.40;;;17.40;99.90;;;;;;5082951;28;20204;-53
2023/05/09 08:56:52;;;;;;;2.87;2.50;;;;;;;;;;5067927;28;20237;-50
2023/05/09 08:59:19;;;;;;;2.80;2.60;;;;;;;;;;5076688;28;20218;-53
2023/05/09 09:01:47;;;;;;;3.03;2.60;;;17.70;95.90;;;;;;5066502;28;21005;-54
2023/05/09 09:04:13;;;;;;;3.20;2.90;;;17.60;95.70;;;;;;5069357;28;20201;-52
2023/05/09 09:06:41;;;;;;;3.77;2.67;;;17.80;94.20;;;;;;5074113;28;20194;-52
2023/05/09 09:09:09;;;;;;;2.93;2.60;;;17.60;95.80;;;;;;5075164;28;20222;-52
2023/05/09 09:11:38;;;;;;;2.70;2.30;;;17.60;94.70;;;;;;5059201;28;20198;-47
2023/05/09 09:14:10;;;;;;;3.00;2.80;;;17.60;96.30;;;;;;5076407;28;20766;-55
2023/05/09 09:16:38;;;;;;;3.80;2.80;;;17.80;91.70;;;;;;5070761;28;20329;-50
2023/05/09 09:19:07;;;;;;;2.60;2.40;;;18.10;93.70;;;;;;5073604;28;20279;-53
2023/05/09 09:21:34;;;;;;;2.80;2.50;;;;;;;;;;5069663;28;20198;-53
2023/05/09 09:24:02;;;;;;;3.53;2.40;;;18.40;94.00;;;;;;5072391;28;20210;-53
2023/05/09 09:26:30;;;;;;;2.83;2.57;;;18.50;92.90;;;;;;5057424;28;20186;-52
2023/05/09 09:28:59;;;;;;;4.50;3.13;;;18.30;99.00;;;;;;5069281;28;20798;-54
2023/05/09 09:31:31;;;;;;;5.07;2.60;;;18.30;99.90;;;;;;5067420;28;20205;-56
2023/05/09 09:34:02;;;;;;;5.57;2.80;;;18.50;99.90;;;;;;5066591;28;20628;-51
2023/05/09 09:36:32;;;;;;;4.07;2.60;;;18.70;99.90;;;;;;5069397;28;20301;-52
2023/05/09 09:39:00;;;;;;;4.93;2.73;;;18.60;99.90;;;;;;5074641;28;20226;-54
2023/05/09 09:41:31;;;;;;;3.03;2.50;;;18.80;99.90;;;;;;5051114;28;20190;-52
2023/05/09 09:44:07;;;;;;;2.60;2.40;;;18.90;99.90;;;;;;5075693;28;20268;-51
2023/05/09 09:46:41;;;;;;;4.53;2.60;;;18.80;99.90;;;;;;5077258;28;20185;-53
2023/05/09 09:49:09;;;;;;;3.07;2.37;;;18.80;99.90;;;;;;5075297;28;20244;-51
2023/05/09 09:51:36;;;;;;;2.70;2.50;;;18.80;99.90;;;;;;5063213;28;20190;-54
2023/05/09 09:54:03;;;;;;;2.50;2.30;;;18.80;99.90;;;;;;5065613;28;20222;-53
2023/05/09 09:56:39;;;;;;;2.60;2.40;;;18.80;99.90;;;;;;5066675;28;20217;-51
2023/05/09 09:59:10;;;;;;;3.37;2.40;;;19.00;99.90;;;;;;5062747;28;20238;-50
2023/05/09 10:01:56;;;;;;;3.00;2.80;;;18.90;99.90;;;;;;5077058;28;20965;-50
2023/05/09 10:04:24;;;;;;;3.57;2.97;;;19.00;99.90;;;;;;5065930;28;20734;-53
2023/05/09 10:06:53;;;;;;;4.13;2.50;;;18.90;99.90;;;;;;5067967;28;20271;-53
2023/05/09 10:09:23;;;;;;;2.70;2.47;;;;;;;;;;5061111;28;21023;-50
2023/05/09 10:11:51;;;;;;;3.37;3.03;;;;;;;;;;5072393;28;20194;-54
2023/05/09 10:14:22;;;;;;;4.60;2.30;;;19.40;79.00;;;;;;5061749;28;20360;-53
2023/05/09 10:16:50;;;;;;;2.73;2.37;;;19.50;78.10;;;;;;5080394;28;20435;-52
2023/05/09 10:19:19;;;;;;;3.57;2.40;;;19.60;77.20;;;;;;5082867;28;20336;-47
2023/05/09 10:21:51;;;;;;;4.43;2.50;;;19.60;77.10;;;;;;5060231;28;20347;-53
2023/05/09 10:24:28;;;;;;;4.40;2.50;;;19.60;75.70;;;;;;5072173;28;20197;-50
2023/05/09 10:27:02;;;;;;;2.17;2.07;;;19.70;74.80;;;;;;5077718;28;20679;-49
2023/05/09 10:29:34;;;;;;;4.43;2.60;;;19.70;74.80;;;;;;5055651;28;20213;-51
2023/05/09 10:32:11;;;;;;;2.30;2.10;;;19.80;74.40;;;;;;5081119;28;20178;-51
2023/05/09 10:34:41;;;;;;;4.87;2.30;;;19.90;74.60;;;;;;5069923;28;20279;-54
2023/05/09 10:37:08;;;;;;;4.40;2.43;;;20.00;75.20;;;;;;5067509;28;20233;-50
2023/05/09 10:39:37;;;;;;;3.27;2.13;;;20.10;73.90;;;;;;5056329;28;20225;-51
2023/05/09 10:42:05;;;;;;;1.90;1.80;;;20.20;72.60;;;;;;5083719;28;20741;-50
2023/05/09 10:44:33;;;;;;;2.30;2.20;;;20.10;72.20;;;;;;5074403;28;20202;-51
2023/05/09 10:47:01;;;;;;;4.50;1.80;;;20.10;73.30;;;;;;5055063;28;20209;-53
2023/05/09 10:49:29;;;;;;;3.57;2.37;;;20.20;71.40;;;;;;5072525;28;20225;-50
2023/05/09 10:51:56;;;;;;;3.87;2.27;;;20.30;71.90;;;;;;5055087;28;20287;-47
2023/05/09 10:54:32;;;;;;;2.23;2.00;;;20.40;71.40;;;;;;5067651;28;20209;-52
2023/05/09 10:56:59;;;;;;;4.37;2.23;;;20.60;94.00;;;;;;5075521;28;20814;-50
2023/05/09 10:59:36;;;;;;;2.50;2.20;;;20.60;92.90;;;;;;5073846;28;20233;-53
2023/05/09 11:02:04;;;;;;;3.03;2.10;;;20.60;93.20;;;;;;5055035;28;20205;-49
2023/05/09 11:04:31;;;;;;;2.40;2.30;;;20.50;93.80;;;;;;5075355;28;20738;-52
2023/05/09 11:06:59;;;;;;;2.27;2.07;;;20.50;94.00;;;;;;5059891;28;20201;-49
2023/05/09 11:09:31;;;;;;;2.13;2.03;;;20.90;67.90;;;;;;5064523;28;20267;-51
2023/05/09 11:12:01;;;;;;;4.70;2.03;;;20.90;68.40;;;;;;5068908;28;20382;-50
2023/05/09 11:14:38;;;;;;;2.10;2.00;;;21.10;68.30;;;;;;5072544;28;20222;-48
2023/05/09 11:17:07;;;;;;;2.60;2.13;;;21.10;66.30;;;;;;5050369;28;21095;-48
2023/05/09 11:19:56;;;;;;;1.80;1.70;;;21.10;66.80;;;;;;5070962;28;20282;-53
2023/05/09 11:22:25;;;;;;;3.13;1.63;;;21.10;63.90;;;;;;5072066;28;20699;-50
2023/05/09 11:24:59;;;;;;;3.00;1.97;;;21.00;65.60;;;;;;5055265;28;20212;-51
2023/05/09 11:27:28;;;;;;;2.80;2.17;;;21.00;64.50;;;;;;5080705;28;20620;-51
2023/05/09 11:29:57;;;;;;;3.10;2.30;;;21.00;63.80;;;;;;5069984;28;20295;-51
2023/05/09 11:32:30;;;;;;;2.50;2.30;;;21.00;63.50;;;;;;5058080;28;20198;-49
2023/05/09 11:35:08;;;;;;;3.93;2.10;;;21.00;62.50;;;;;;5074085;28;20210;-49
2023/05/09 11:37:43;;;;;;;5.30;2.23;;;21.00;63.30;;;;;;5078153;28;20218;-54
2023/05/09 11:40:13;;;;;;;2.53;1.80;;;21.10;61.80;;;;;;5078216;28;20964;-52
2023/05/09 11:42:42;;;;;;;3.43;1.67;;;21.10;61.40;;;;;;5081546;28;20206;-51
2023/05/09 11:45:11;;;;;;;2.40;1.90;;;21.10;60.70;;;;;;5076077;28;20911;-53
2023/05/09 11:47:38;;;;;;;2.17;1.93;;;21.10;60.30;;;;;;5051081;28;20198;-53
2023/05/09 11:50:07;;;;;;;2.13;2.03;;;21.20;61.20;;;;;;5079928;28;20225;-51
2023/05/09 11:52:34;;;;;;;3.77;2.00;;;21.30;62.00;;;;;;5076059;28;20197;-54
2023/05/09 11:55:01;;;;;;;4.23;2.70;;;21.50;60.60;;;;;;5068522;28;20194;-51
2023/05/09 11:57:29;;;;;;;2.93;2.17;;;21.40;60.00;;;;;;5071581;28;20317;-49
2023/05/09 11:59:56;;;;;;;2.10;1.90;;;21.30;59.30;;;;;;5074339;28;20995;-52
2023/05/09 12:02:25;;;;;;;2.30;2.10;;;21.20;59.20;;;;;;5067957;28;20274;-48
2023/05/09 12:04:52;;;;;;;4.23;2.40;;;21.20;59.00;;;;;;5062739;28;20706;-53
2023/05/09 12:07:19;;;;;;;3.23;1.90;;;21.30;59.40;;;;;;5078760;28;20486;-48
2023/05/09 12:09:52;;;;;;;2.50;1.90;;;21.40;59.50;;;;;;5068966;28;20222;-54
2023/05/09 12:12:20;;;;;;;2.20;2.00;;;21.50;59.30;;;;;;5068845;28;20197;-51
2023/05/09 12:14:48;;;;;;;2.70;1.90;;;21.50;58.60;;;;;;5072096;28;20305;-53
2023/05/09 12:17:15;;;;;;;4.35;2.22;;;21.60;58.20;;;;;;5077163;28;20218;-51
2023/05/09 12:19:44;;;;;;;3.50;1.60;;;21.70;62.80;;;;;;5062488;28;20301;-52
2023/05/09 12:22:11;;;;;;;1.97;1.83;;;21.80;72.60;;;;;;5080010;28;20190;-50
2023/05/09 12:24:37;;;;;;;2.35;2.20;;;21.90;86.00;;;;;;5079032;28;20197;-55
2023/05/09 12:27:06;;;;;;;3.03;2.23;;;21.90;90.20;;;;;;5072577;28;20194;-51
2023/05/09 12:29:33;;;;;;;1.97;1.87;;;21.90;90.10;;;;;;5074476;28;20279;-53
2023/05/09 12:32:00;;;;;;;4.40;2.20;;;21.90;90.30;;;;;;5076990;28;20813;-46
2023/05/09 12:34:27;;;;;;;4.22;2.22;;;22.10;93.70;;;;;;5060104;28;20226;-49
2023/05/09 12:36:57;;;;;;;7.35;6.30;;;22.10;58.00;;;;;;5080233;28;20197;-51
2023/05/09 12:39:25;;;;;;;6.57;4.93;;;22.10;57.10;;;;;;5080705;28;20210;-49
2023/05/09 12:41:52;;;;;;;4.20;3.75;;;22.10;56.40;;;;;;5065757;28;20194;-53
2023/05/09 12:44:21;;;;;;;7.00;3.05;;;22.10;56.30;;;;;;5067305;28;20198;-49
2023/05/09 12:46:59;;;;;;;2.90;2.60;;;22.00;56.50;;;;;;5078310;28;20190;-54
2023/05/09 12:49:26;;;;;;;2.72;2.50;;;22.20;56.70;;;;;;5058282;28;20889;-48
2023/05/09 12:51:55;;;;;;;5.37;2.40;;;22.30;57.20;;;;;;5069897;28;20723;-49
2023/05/09 12:54:24;;;;;;;5.80;2.40;;;22.40;57.10;;;;;;5073551;28;20200;-50
2023/05/09 12:56:52;;;;;;;3.53;2.45;;;22.40;57.20;;;;;;5061048;28;20273;-52
2023/05/09 12:59:22;;;;;;;3.50;2.40;;;22.50;57.50;;;;;;5083905;28;20210;-51